Terminal Aerodrome Forecast
Issued by NWS Northern Indiana

Home | Current Version | Previous Version | Graphics & Text | Print | Product List | Glossary On
Versions: 1 2 3 4 5 6 7 8 9 10 11 12 13
000
FTUS43 KIWX 191500 AAA
TAFFWA
TAF AMD
KFWA 191532Z 1916/2012 07007KT P6SM OVC045
     FM191800 10004KT P6SM BKN040
     FM200600 00000KT 5SM BR SCT040=

USA.gov is the U.S. government's official web portal to all federal, state and local government web resources and services.